sensor_id;sensor_type;location;lat;lon;timestamp;P1;durP1;ratioP1;P2;durP2;ratioP2
47009;SDS011;59230;54.164;-3.124;2024-01-07T00:00:43;40.45;;;15.82;;
47009;SDS011;59230;54.164;-3.124;2024-01-07T00:03:10;34.63;;;14.63;;
47009;SDS011;59230;54.164;-3.124;2024-01-07T00:05:35;36.40;;;14.77;;
47009;SDS011;59230;54.164;-3.124;2024-01-07T00:08:05;38.67;;;15.30;;
47009;SDS011;59230;54.164;-3.124;2024-01-07T00:10:33;39.15;;;15.13;;
47009;SDS011;59230;54.164;-3.124;2024-01-07T00:13:00;39.60;;;16.38;;
47009;SDS011;59230;54.164;-3.124;2024-01-07T00:15:28;35.75;;;15.93;;
47009;SDS011;59230;54.164;-3.124;2024-01-07T00:17:54;29.85;;;12.18;;
47009;SDS011;59230;54.164;-3.124;2024-01-07T00:20:21;21.70;;;11.48;;
47009;SDS011;59230;54.164;-3.124;2024-01-07T00:22:47;35.28;;;15.23;;
47009;SDS011;59230;54.164;-3.124;2024-01-07T00:25:13;44.38;;;15.55;;
47009;SDS011;59230;54.164;-3.124;2024-01-07T00:27:39;27.35;;;11.95;;
47009;SDS011;59230;54.164;-3.124;2024-01-07T00:30:08;26.92;;;11.80;;
47009;SDS011;59230;54.164;-3.124;2024-01-07T00:32:37;23.67;;;12.43;;
47009;SDS011;59230;54.164;-3.124;2024-01-07T00:35:05;27.80;;;12.15;;
47009;SDS011;59230;54.164;-3.124;2024-01-07T00:37:31;33.53;;;13.60;;
47009;SDS011;59230;54.164;-3.124;2024-01-07T00:40:02;36.83;;;14.27;;
47009;SDS011;59230;54.164;-3.124;2024-01-07T00:42:28;29.52;;;12.23;;
47009;SDS011;59230;54.164;-3.124;2024-01-07T00:44:55;34.30;;;13.20;;
47009;SDS011;59230;54.164;-3.124;2024-01-07T00:47:22;46.22;;;14.57;;
47009;SDS011;59230;54.164;-3.124;2024-01-07T00:49:49;36.88;;;12.60;;
47009;SDS011;59230;54.164;-3.124;2024-01-07T00:52:16;31.52;;;12.90;;
47009;SDS011;59230;54.164;-3.124;2024-01-07T00:54:42;32.00;;;13.48;;
47009;SDS011;59230;54.164;-3.124;2024-01-07T00:57:09;26.50;;;12.82;;
47009;SDS011;59230;54.164;-3.124;2024-01-07T00:59:37;27.58;;;12.77;;
47009;SDS011;59230;54.164;-3.124;2024-01-07T01:02:04;34.30;;;12.32;;
47009;SDS011;59230;54.164;-3.124;2024-01-07T01:04:30;37.60;;;14.65;;
47009;SDS011;59230;54.164;-3.124;2024-01-07T01:06:56;33.83;;;12.70;;
47009;SDS011;59230;54.164;-3.124;2024-01-07T01:09:22;26.15;;;12.80;;
47009;SDS011;59230;54.164;-3.124;2024-01-07T01:11:48;30.98;;;12.10;;
47009;SDS011;59230;54.164;-3.124;2024-01-07T01:14:16;24.08;;;10.10;;
47009;SDS011;59230;54.164;-3.124;2024-01-07T01:16:44;32.03;;;10.73;;
47009;SDS011;59230;54.164;-3.124;2024-01-07T01:19:11;23.88;;;10.02;;
47009;SDS011;59230;54.164;-3.124;2024-01-07T01:21:38;20.85;;;8.65;;
47009;SDS011;59230;54.164;-3.124;2024-01-07T01:24:06;24.55;;;8.43;;
47009;SDS011;59230;54.164;-3.124;2024-01-07T01:26:32;18.80;;;9.02;;
47009;SDS011;59230;54.164;-3.124;2024-01-07T01:28:59;22.92;;;9.32;;
47009;SDS011;59230;54.164;-3.124;2024-01-07T01:31:26;26.27;;;8.63;;
47009;SDS011;59230;54.164;-3.124;2024-01-07T01:33:53;21.63;;;9.57;;
47009;SDS011;59230;54.164;-3.124;2024-01-07T01:36:20;15.93;;;7.30;;
47009;SDS011;59230;54.164;-3.124;2024-01-07T01:38:46;21.77;;;7.65;;
47009;SDS011;59230;54.164;-3.124;2024-01-07T01:41:19;20.77;;;7.82;;
47009;SDS011;59230;54.164;-3.124;2024-01-07T01:43:45;20.42;;;9.70;;
47009;SDS011;59230;54.164;-3.124;2024-01-07T01:46:11;23.73;;;9.88;;
47009;SDS011;59230;54.164;-3.124;2024-01-07T01:48:39;25.75;;;11.13;;
47009;SDS011;59230;54.164;-3.124;2024-01-07T01:51:08;25.27;;;10.38;;
47009;SDS011;59230;54.164;-3.124;2024-01-07T01:53:33;23.17;;;9.63;;
47009;SDS011;59230;54.164;-3.124;2024-01-07T01:56:01;22.27;;;9.60;;
47009;SDS011;59230;54.164;-3.124;2024-01-07T01:58:29;19.45;;;8.65;;
47009;SDS011;59230;54.164;-3.124;2024-01-07T02:00:56;23.02;;;8.85;;
47009;SDS011;59230;54.164;-3.124;2024-01-07T02:03:23;25.90;;;9.15;;
47009;SDS011;59230;54.164;-3.124;2024-01-07T02:05:56;27.52;;;8.30;;
47009;SDS011;59230;54.164;-3.124;2024-01-07T02:08:24;23.67;;;7.85;;
47009;SDS011;59230;54.164;-3.124;2024-01-07T02:10:52;27.85;;;9.43;;
47009;SDS011;59230;54.164;-3.124;2024-01-07T02:13:20;21.75;;;8.40;;
47009;SDS011;59230;54.164;-3.124;2024-01-07T02:15:46;16.80;;;8.10;;
47009;SDS011;59230;54.164;-3.124;2024-01-07T02:18:12;19.48;;;8.07;;
47009;SDS011;59230;54.164;-3.124;2024-01-07T02:20:39;24.13;;;8.38;;
47009;SDS011;59230;54.164;-3.124;2024-01-07T02:23:06;20.25;;;8.18;;
47009;SDS011;59230;54.164;-3.124;2024-01-07T02:25:36;23.20;;;7.43;;
47009;SDS011;59230;54.164;-3.124;2024-01-07T02:28:06;22.38;;;7.60;;
47009;SDS011;59230;54.164;-3.124;2024-01-07T02:30:33;22.08;;;6.78;;
47009;SDS011;59230;54.164;-3.124;2024-01-07T02:33:00;21.05;;;5.90;;
47009;SDS011;59230;54.164;-3.124;2024-01-07T02:35:34;17.92;;;5.28;;
47009;SDS011;59230;54.164;-3.124;2024-01-07T02:37:59;19.20;;;5.85;;
47009;SDS011;59230;54.164;-3.124;2024-01-07T02:40:26;21.63;;;5.57;;
47009;SDS011;59230;54.164;-3.124;2024-01-07T02:42:52;22.17;;;5.72;;
47009;SDS011;59230;54.164;-3.124;2024-01-07T02:45:18;15.48;;;5.10;;
47009;SDS011;59230;54.164;-3.124;2024-01-07T02:47:46;19.25;;;6.30;;
47009;SDS011;59230;54.164;-3.124;2024-01-07T02:50:12;20.73;;;7.03;;
47009;SDS011;59230;54.164;-3.124;2024-01-07T02:52:42;19.90;;;7.07;;
47009;SDS011;59230;54.164;-3.124;2024-01-07T02:55:08;21.10;;;6.15;;
47009;SDS011;59230;54.164;-3.124;2024-01-07T02:57:36;14.32;;;4.20;;
47009;SDS011;59230;54.164;-3.124;2024-01-07T03:00:02;15.80;;;4.07;;
47009;SDS011;59230;54.164;-3.124;2024-01-07T03:02:29;12.27;;;3.03;;
47009;SDS011;59230;54.164;-3.124;2024-01-07T03:04:56;12.02;;;3.65;;
47009;SDS011;59230;54.164;-3.124;2024-01-07T03:07:22;18.13;;;3.88;;
47009;SDS011;59230;54.164;-3.124;2024-01-07T03:09:49;12.93;;;5.00;;
47009;SDS011;59230;54.164;-3.124;2024-01-07T03:12:18;19.23;;;3.70;;
47009;SDS011;59230;54.164;-3.124;2024-01-07T03:14:45;11.30;;;3.00;;
47009;SDS011;59230;54.164;-3.124;2024-01-07T03:17:11;11.85;;;3.40;;
47009;SDS011;59230;54.164;-3.124;2024-01-07T03:19:42;12.73;;;2.90;;
47009;SDS011;59230;54.164;-3.124;2024-01-07T03:22:10;15.82;;;3.17;;
47009;SDS011;59230;54.164;-3.124;2024-01-07T03:24:36;18.23;;;3.38;;
47009;SDS011;59230;54.164;-3.124;2024-01-07T03:27:02;11.23;;;3.20;;
47009;SDS011;59230;54.164;-3.124;2024-01-07T03:29:30;12.85;;;3.47;;
47009;SDS011;59230;54.164;-3.124;2024-01-07T03:31:57;9.07;;;2.53;;
47009;SDS011;59230;54.164;-3.124;2024-01-07T03:34:23;10.25;;;2.55;;
47009;SDS011;59230;54.164;-3.124;2024-01-07T03:36:48;12.82;;;2.90;;
47009;SDS011;59230;54.164;-3.124;2024-01-07T03:39:14;10.48;;;2.20;;
47009;SDS011;59230;54.164;-3.124;2024-01-07T03:41:43;12.63;;;2.35;;
47009;SDS011;59230;54.164;-3.124;2024-01-07T03:44:10;10.05;;;2.20;;
47009;SDS011;59230;54.164;-3.124;2024-01-07T03:46:38;10.85;;;2.47;;
47009;SDS011;59230;54.164;-3.124;2024-01-07T03:49:04;15.27;;;2.05;;
47009;SDS011;59230;54.164;-3.124;2024-01-07T03:51:31;8.25;;;1.80;;
47009;SDS011;59230;54.164;-3.124;2024-01-07T03:53:57;6.68;;;1.48;;
47009;SDS011;59230;54.164;-3.124;2024-01-07T03:56:24;6.22;;;2.47;;
47009;SDS011;59230;54.164;-3.124;2024-01-07T03:58:50;8.05;;;1.83;;
47009;SDS011;59230;54.164;-3.124;2024-01-07T04:01:16;5.57;;;1.63;;
47009;SDS011;59230;54.164;-3.124;2024-01-07T04:03:43;8.85;;;2.00;;
47009;SDS011;59230;54.164;-3.124;2024-01-07T04:06:10;7.28;;;2.03;;
47009;SDS011;59230;54.164;-3.124;2024-01-07T04:08:37;20.80;;;2.45;;
47009;SDS011;59230;54.164;-3.124;2024-01-07T04:11:05;16.25;;;1.83;;
47009;SDS011;59230;54.164;-3.124;2024-01-07T04:13:33;11.75;;;2.00;;
47009;SDS011;59230;54.164;-3.124;2024-01-07T04:16:00;14.00;;;2.58;;
47009;SDS011;59230;54.164;-3.124;2024-01-07T04:18:26;7.25;;;1.45;;
47009;SDS011;59230;54.164;-3.124;2024-01-07T04:20:52;12.82;;;2.17;;
47009;SDS011;59230;54.164;-3.124;2024-01-07T04:23:17;16.98;;;1.88;;
47009;SDS011;59230;54.164;-3.124;2024-01-07T04:25:45;8.73;;;1.73;;
47009;SDS011;59230;54.164;-3.124;2024-01-07T04:28:10;7.60;;;1.75;;
47009;SDS011;59230;54.164;-3.124;2024-01-07T04:30:38;6.97;;;1.85;;
47009;SDS011;59230;54.164;-3.124;2024-01-07T04:33:08;7.35;;;1.80;;
47009;SDS011;59230;54.164;-3.124;2024-01-07T04:35:34;10.27;;;1.85;;
47009;SDS011;59230;54.164;-3.124;2024-01-07T04:38:03;14.95;;;2.67;;
47009;SDS011;59230;54.164;-3.124;2024-01-07T04:40:31;13.45;;;1.80;;
47009;SDS011;59230;54.164;-3.124;2024-01-07T04:43:00;10.25;;;1.85;;
47009;SDS011;59230;54.164;-3.124;2024-01-07T04:45:27;11.75;;;2.00;;
47009;SDS011;59230;54.164;-3.124;2024-01-07T04:47:53;8.90;;;1.95;;
47009;SDS011;59230;54.164;-3.124;2024-01-07T04:50:19;14.77;;;1.90;;
47009;SDS011;59230;54.164;-3.124;2024-01-07T04:52:46;15.20;;;2.40;;
47009;SDS011;59230;54.164;-3.124;2024-01-07T04:55:13;12.18;;;1.80;;
47009;SDS011;59230;54.164;-3.124;2024-01-07T04:57:38;24.23;;;2.45;;
47009;SDS011;59230;54.164;-3.124;2024-01-07T05:00:05;9.43;;;1.90;;
47009;SDS011;59230;54.164;-3.124;2024-01-07T05:02:32;12.05;;;2.22;;
47009;SDS011;59230;54.164;-3.124;2024-01-07T05:04:58;8.23;;;2.03;;
47009;SDS011;59230;54.164;-3.124;2024-01-07T05:07:25;16.30;;;1.88;;
47009;SDS011;59230;54.164;-3.124;2024-01-07T05:09:52;8.23;;;2.13;;
47009;SDS011;59230;54.164;-3.124;2024-01-07T05:12:17;11.07;;;2.15;;
47009;SDS011;59230;54.164;-3.124;2024-01-07T05:14:43;10.40;;;2.08;;
47009;SDS011;59230;54.164;-3.124;2024-01-07T05:17:10;12.48;;;1.80;;
47009;SDS011;59230;54.164;-3.124;2024-01-07T05:19:35;7.72;;;1.75;;
47009;SDS011;59230;54.164;-3.124;2024-01-07T05:22:01;9.82;;;1.85;;
47009;SDS011;59230;54.164;-3.124;2024-01-07T05:24:28;15.20;;;2.25;;
47009;SDS011;59230;54.164;-3.124;2024-01-07T05:26:54;17.65;;;2.15;;
47009;SDS011;59230;54.164;-3.124;2024-01-07T05:29:20;13.25;;;2.10;;
47009;SDS011;59230;54.164;-3.124;2024-01-07T05:31:50;19.08;;;3.42;;
47009;SDS011;59230;54.164;-3.124;2024-01-07T05:34:15;13.68;;;2.33;;
47009;SDS011;59230;54.164;-3.124;2024-01-07T05:36:41;9.98;;;2.15;;
47009;SDS011;59230;54.164;-3.124;2024-01-07T05:39:06;10.20;;;2.08;;
47009;SDS011;59230;54.164;-3.124;2024-01-07T05:41:36;9.70;;;1.67;;
47009;SDS011;59230;54.164;-3.124;2024-01-07T05:44:06;10.65;;;2.70;;
47009;SDS011;59230;54.164;-3.124;2024-01-07T05:46:33;9.57;;;2.10;;
47009;SDS011;59230;54.164;-3.124;2024-01-07T05:48:59;11.75;;;1.88;;
47009;SDS011;59230;54.164;-3.124;2024-01-07T05:51:27;11.98;;;2.05;;
47009;SDS011;59230;54.164;-3.124;2024-01-07T05:53:52;12.50;;;2.40;;
47009;SDS011;59230;54.164;-3.124;2024-01-07T05:56:20;15.20;;;2.75;;
47009;SDS011;59230;54.164;-3.124;2024-01-07T05:58:46;13.40;;;1.90;;
47009;SDS011;59230;54.164;-3.124;2024-01-07T06:01:17;10.80;;;1.90;;
47009;SDS011;59230;54.164;-3.124;2024-01-07T06:03:48;14.82;;;2.72;;
47009;SDS011;59230;54.164;-3.124;2024-01-07T06:06:16;7.43;;;2.08;;
47009;SDS011;59230;54.164;-3.124;2024-01-07T06:08:43;22.63;;;2.75;;
47009;SDS011;59230;54.164;-3.124;2024-01-07T06:11:10;11.98;;;2.10;;
47009;SDS011;59230;54.164;-3.124;2024-01-07T06:13:46;13.63;;;2.20;;
47009;SDS011;59230;54.164;-3.124;2024-01-07T06:16:15;14.45;;;2.50;;
47009;SDS011;59230;54.164;-3.124;2024-01-07T06:18:43;16.13;;;2.33;;
47009;SDS011;59230;54.164;-3.124;2024-01-07T06:21:12;12.32;;;2.30;;
47009;SDS011;59230;54.164;-3.124;2024-01-07T06:23:37;13.68;;;2.00;;
47009;SDS011;59230;54.164;-3.124;2024-01-07T06:26:05;18.08;;;2.20;;
47009;SDS011;59230;54.164;-3.124;2024-01-07T06:28:32;9.43;;;2.05;;
47009;SDS011;59230;54.164;-3.124;2024-01-07T06:30:59;5.80;;;1.63;;
47009;SDS011;59230;54.164;-3.124;2024-01-07T06:33:24;12.18;;;2.50;;
47009;SDS011;59230;54.164;-3.124;2024-01-07T06:35:50;12.68;;;1.90;;
47009;SDS011;59230;54.164;-3.124;2024-01-07T06:38:17;12.20;;;1.75;;
47009;SDS011;59230;54.164;-3.124;2024-01-07T06:40:45;13.43;;;1.52;;
47009;SDS011;59230;54.164;-3.124;2024-01-07T06:43:12;12.25;;;2.00;;
47009;SDS011;59230;54.164;-3.124;2024-01-07T06:45:39;8.93;;;1.67;;
47009;SDS011;59230;54.164;-3.124;2024-01-07T06:48:06;13.30;;;3.08;;
47009;SDS011;59230;54.164;-3.124;2024-01-07T06:50:34;20.23;;;5.63;;
47009;SDS011;59230;54.164;-3.124;2024-01-07T06:52:59;26.63;;;6.22;;
47009;SDS011;59230;54.164;-3.124;2024-01-07T06:55:25;19.50;;;5.15;;
47009;SDS011;59230;54.164;-3.124;2024-01-07T06:57:51;19.73;;;5.68;;
47009;SDS011;59230;54.164;-3.124;2024-01-07T07:00:18;16.10;;;4.95;;
47009;SDS011;59230;54.164;-3.124;2024-01-07T07:02:44;22.88;;;3.97;;
47009;SDS011;59230;54.164;-3.124;2024-01-07T07:05:10;13.70;;;3.90;;
47009;SDS011;59230;54.164;-3.124;2024-01-07T07:07:37;15.80;;;3.85;;
47009;SDS011;59230;54.164;-3.124;2024-01-07T07:10:03;15.82;;;4.05;;
47009;SDS011;59230;54.164;-3.124;2024-01-07T07:12:29;14.93;;;3.67;;
47009;SDS011;59230;54.164;-3.124;2024-01-07T07:14:55;8.60;;;2.90;;
47009;SDS011;59230;54.164;-3.124;2024-01-07T07:17:20;18.95;;;3.22;;
47009;SDS011;59230;54.164;-3.124;2024-01-07T07:19:47;12.25;;;3.20;;
47009;SDS011;59230;54.164;-3.124;2024-01-07T07:22:13;18.80;;;4.38;;
47009;SDS011;59230;54.164;-3.124;2024-01-07T07:24:41;12.15;;;3.50;;
47009;SDS011;59230;54.164;-3.124;2024-01-07T07:27:08;13.55;;;4.00;;
47009;SDS011;59230;54.164;-3.124;2024-01-07T07:29:34;21.83;;;4.40;;
47009;SDS011;59230;54.164;-3.124;2024-01-07T07:32:00;16.92;;;2.83;;
47009;SDS011;59230;54.164;-3.124;2024-01-07T07:34:26;13.50;;;3.10;;
47009;SDS011;59230;54.164;-3.124;2024-01-07T07:36:54;12.90;;;2.53;;
47009;SDS011;59230;54.164;-3.124;2024-01-07T07:39:21;8.13;;;2.42;;
47009;SDS011;59230;54.164;-3.124;2024-01-07T07:41:47;12.73;;;2.33;;
47009;SDS011;59230;54.164;-3.124;2024-01-07T07:44:14;9.38;;;2.00;;
47009;SDS011;59230;54.164;-3.124;2024-01-07T07:46:39;12.40;;;2.05;;
47009;SDS011;59230;54.164;-3.124;2024-01-07T07:49:08;13.93;;;2.22;;
47009;SDS011;59230;54.164;-3.124;2024-01-07T07:51:34;11.98;;;2.22;;
47009;SDS011;59230;54.164;-3.124;2024-01-07T07:54:01;14.60;;;2.42;;
47009;SDS011;59230;54.164;-3.124;2024-01-07T07:56:28;8.77;;;2.63;;
47009;SDS011;59230;54.164;-3.124;2024-01-07T07:58:55;14.98;;;2.50;;
47009;SDS011;59230;54.164;-3.124;2024-01-07T08:01:20;17.88;;;2.50;;
47009;SDS011;59230;54.164;-3.124;2024-01-07T08:03:47;10.23;;;2.10;;
47009;SDS011;59230;54.164;-3.124;2024-01-07T08:06:15;11.32;;;2.78;;
47009;SDS011;59230;54.164;-3.124;2024-01-07T08:08:42;16.63;;;2.83;;
47009;SDS011;59230;54.164;-3.124;2024-01-07T08:11:09;9.55;;;2.30;;
47009;SDS011;59230;54.164;-3.124;2024-01-07T08:13:37;7.90;;;2.10;;
47009;SDS011;59230;54.164;-3.124;2024-01-07T08:16:06;7.55;;;1.80;;
47009;SDS011;59230;54.164;-3.124;2024-01-07T08:18:32;10.30;;;2.20;;
47009;SDS011;59230;54.164;-3.124;2024-01-07T08:21:00;6.65;;;1.80;;
47009;SDS011;59230;54.164;-3.124;2024-01-07T08:23:26;10.93;;;2.08;;
47009;SDS011;59230;54.164;-3.124;2024-01-07T08:25:54;12.18;;;2.20;;
47009;SDS011;59230;54.164;-3.124;2024-01-07T08:28:20;9.80;;;2.20;;
47009;SDS011;59230;54.164;-3.124;2024-01-07T08:30:48;12.25;;;2.08;;
47009;SDS011;59230;54.164;-3.124;2024-01-07T08:33:20;4.35;;;1.70;;
47009;SDS011;59230;54.164;-3.124;2024-01-07T08:35:45;12.88;;;2.25;;
47009;SDS011;59230;54.164;-3.124;2024-01-07T08:38:13;13.68;;;2.00;;
47009;SDS011;59230;54.164;-3.124;2024-01-07T08:40:41;9.65;;;1.60;;
47009;SDS011;59230;54.164;-3.124;2024-01-07T08:43:06;15.13;;;1.95;;
47009;SDS011;59230;54.164;-3.124;2024-01-07T08:45:33;9.90;;;1.60;;
47009;SDS011;59230;54.164;-3.124;2024-01-07T08:47:59;8.25;;;2.03;;
47009;SDS011;59230;54.164;-3.124;2024-01-07T08:50:24;8.70;;;2.00;;
47009;SDS011;59230;54.164;-3.124;2024-01-07T08:52:50;13.32;;;2.47;;
47009;SDS011;59230;54.164;-3.124;2024-01-07T08:55:17;9.50;;;2.15;;
47009;SDS011;59230;54.164;-3.124;2024-01-07T08:57:44;11.25;;;2.45;;
47009;SDS011;59230;54.164;-3.124;2024-01-07T09:00:14;11.77;;;2.70;;
47009;SDS011;59230;54.164;-3.124;2024-01-07T09:02:41;9.38;;;2.60;;
47009;SDS011;59230;54.164;-3.124;2024-01-07T09:05:10;12.57;;;3.92;;
47009;SDS011;59230;54.164;-3.124;2024-01-07T09:07:37;9.70;;;3.25;;
47009;SDS011;59230;54.164;-3.124;2024-01-07T09:10:05;16.45;;;3.47;;
47009;SDS011;59230;54.164;-3.124;2024-01-07T09:15:04;11.25;;;4.68;;
47009;SDS011;59230;54.164;-3.124;2024-01-07T09:17:36;12.70;;;3.75;;
47009;SDS011;59230;54.164;-3.124;2024-01-07T09:20:03;9.77;;;3.70;;
47009;SDS011;59230;54.164;-3.124;2024-01-07T09:22:34;14.40;;;4.03;;
47009;SDS011;59230;54.164;-3.124;2024-01-07T09:25:02;12.60;;;4.05;;
47009;SDS011;59230;54.164;-3.124;2024-01-07T09:27:32;10.40;;;4.20;;
47009;SDS011;59230;54.164;-3.124;2024-01-07T09:29:58;11.15;;;3.63;;
47009;SDS011;59230;54.164;-3.124;2024-01-07T09:32:24;18.40;;;6.40;;
47009;SDS011;59230;54.164;-3.124;2024-01-07T09:34:51;15.70;;;4.00;;
47009;SDS011;59230;54.164;-3.124;2024-01-07T09:37:18;12.85;;;4.43;;
47009;SDS011;59230;54.164;-3.124;2024-01-07T09:39:47;17.85;;;6.75;;
47009;SDS011;59230;54.164;-3.124;2024-01-07T09:42:17;24.55;;;6.28;;
47009;SDS011;59230;54.164;-3.124;2024-01-07T09:44:45;18.65;;;5.18;;
47009;SDS011;59230;54.164;-3.124;2024-01-07T09:47:12;10.07;;;3.50;;
47009;SDS011;59230;54.164;-3.124;2024-01-07T09:49:40;17.48;;;2.50;;
47009;SDS011;59230;54.164;-3.124;2024-01-07T09:52:07;12.90;;;4.40;;
47009;SDS011;59230;54.164;-3.124;2024-01-07T09:54:39;17.63;;;5.40;;
47009;SDS011;59230;54.164;-3.124;2024-01-07T09:57:08;15.73;;;6.18;;
47009;SDS011;59230;54.164;-3.124;2024-01-07T09:59:37;16.65;;;6.65;;
47009;SDS011;59230;54.164;-3.124;2024-01-07T10:02:04;19.63;;;5.85;;
47009;SDS011;59230;54.164;-3.124;2024-01-07T10:04:31;11.75;;;4.47;;
47009;SDS011;59230;54.164;-3.124;2024-01-07T10:06:57;13.63;;;4.75;;
47009;SDS011;59230;54.164;-3.124;2024-01-07T10:09:24;12.52;;;3.63;;
47009;SDS011;59230;54.164;-3.124;2024-01-07T10:11:56;8.23;;;2.55;;
47009;SDS011;59230;54.164;-3.124;2024-01-07T10:14:22;12.32;;;2.72;;
47009;SDS011;59230;54.164;-3.124;2024-01-07T10:16:52;9.38;;;2.55;;
47009;SDS011;59230;54.164;-3.124;2024-01-07T10:19:21;10.77;;;2.00;;
47009;SDS011;59230;54.164;-3.124;2024-01-07T10:22:03;15.27;;;2.20;;
47009;SDS011;59230;54.164;-3.124;2024-01-07T10:24:36;13.15;;;2.13;;
47009;SDS011;59230;54.164;-3.124;2024-01-07T10:27:04;6.80;;;1.45;;
47009;SDS011;59230;54.164;-3.124;2024-01-07T10:29:31;13.77;;;2.08;;
47009;SDS011;59230;54.164;-3.124;2024-01-07T10:32:01;17.02;;;1.80;;
47009;SDS011;59230;54.164;-3.124;2024-01-07T10:34:36;7.45;;;1.33;;
47009;SDS011;59230;54.164;-3.124;2024-01-07T10:37:04;11.88;;;1.50;;
47009;SDS011;59230;54.164;-3.124;2024-01-07T10:39:31;12.82;;;2.03;;
47009;SDS011;59230;54.164;-3.124;2024-01-07T10:41:56;9.43;;;1.42;;
47009;SDS011;59230;54.164;-3.124;2024-01-07T10:44:25;6.75;;;1.63;;
47009;SDS011;59230;54.164;-3.124;2024-01-07T10:46:53;10.23;;;3.50;;
47009;SDS011;59230;54.164;-3.124;2024-01-07T10:49:25;13.38;;;4.63;;
47009;SDS011;59230;54.164;-3.124;2024-01-07T10:51:56;10.95;;;2.95;;
47009;SDS011;59230;54.164;-3.124;2024-01-07T10:54:36;9.80;;;2.22;;
47009;SDS011;59230;54.164;-3.124;2024-01-07T10:59:45;31.48;;;19.38;;
47009;SDS011;59230;54.164;-3.124;2024-01-07T11:02:12;20.25;;;5.93;;
47009;SDS011;59230;54.164;-3.124;2024-01-07T11:07:35;11.88;;;2.50;;
47009;SDS011;59230;54.164;-3.124;2024-01-07T11:10:12;4.75;;;1.98;;
47009;SDS011;59230;54.164;-3.124;2024-01-07T11:12:56;10.52;;;1.90;;
47009;SDS011;59230;54.164;-3.124;2024-01-07T11:18:20;5.22;;;1.30;;
47009;SDS011;59230;54.164;-3.124;2024-01-07T11:20:46;11.07;;;1.90;;
47009;SDS011;59230;54.164;-3.124;2024-01-07T11:23:29;8.35;;;1.98;;
47009;SDS011;59230;54.164;-3.124;2024-01-07T11:25:57;6.70;;;1.52;;
47009;SDS011;59230;54.164;-3.124;2024-01-07T11:33:50;49.83;;;20.23;;
47009;SDS011;59230;54.164;-3.124;2024-01-07T11:36:17;40.05;;;16.15;;
47009;SDS011;59230;54.164;-3.124;2024-01-07T11:38:47;51.47;;;22.15;;
47009;SDS011;59230;54.164;-3.124;2024-01-07T11:41:14;48.80;;;19.08;;
47009;SDS011;59230;54.164;-3.124;2024-01-07T11:43:57;67.22;;;23.50;;
47009;SDS011;59230;54.164;-3.124;2024-01-07T11:46:26;55.72;;;22.05;;
47009;SDS011;59230;54.164;-3.124;2024-01-07T11:48:55;171.20;;;66.68;;
47009;SDS011;59230;54.164;-3.124;2024-01-07T11:51:26;215.30;;;88.63;;
47009;SDS011;59230;54.164;-3.124;2024-01-07T11:53:54;59.42;;;25.05;;
47009;SDS011;59230;54.164;-3.124;2024-01-07T11:56:22;114.40;;;50.72;;
47009;SDS011;59230;54.164;-3.124;2024-01-07T11:58:50;52.40;;;23.77;;
47009;SDS011;59230;54.164;-3.124;2024-01-07T12:01:18;68.47;;;30.50;;
47009;SDS011;59230;54.164;-3.124;2024-01-07T12:03:44;96.55;;;34.45;;
47009;SDS011;59230;54.164;-3.124;2024-01-07T12:06:12;51.60;;;18.17;;
47009;SDS011;59230;54.164;-3.124;2024-01-07T12:08:44;55.90;;;17.45;;
47009;SDS011;59230;54.164;-3.124;2024-01-07T12:11:14;48.55;;;21.02;;
47009;SDS011;59230;54.164;-3.124;2024-01-07T12:13:41;32.75;;;12.80;;
47009;SDS011;59230;54.164;-3.124;2024-01-07T12:16:08;35.67;;;15.48;;
47009;SDS011;59230;54.164;-3.124;2024-01-07T12:18:38;68.88;;;23.25;;
47009;SDS011;59230;54.164;-3.124;2024-01-07T12:21:07;23.23;;;6.30;;
47009;SDS011;59230;54.164;-3.124;2024-01-07T12:23:36;9.48;;;3.05;;
47009;SDS011;59230;54.164;-3.124;2024-01-07T12:26:11;12.45;;;6.85;;
47009;SDS011;59230;54.164;-3.124;2024-01-07T12:28:37;98.38;;;32.58;;
47009;SDS011;59230;54.164;-3.124;2024-01-07T12:31:06;33.88;;;11.77;;
47009;SDS011;59230;54.164;-3.124;2024-01-07T12:33:49;49.42;;;17.48;;
47009;SDS011;59230;54.164;-3.124;2024-01-07T12:36:19;19.98;;;6.63;;
47009;SDS011;59230;54.164;-3.124;2024-01-07T12:38:47;28.38;;;7.80;;
47009;SDS011;59230;54.164;-3.124;2024-01-07T12:41:13;11.23;;;3.20;;
47009;SDS011;59230;54.164;-3.124;2024-01-07T12:43:39;8.57;;;2.47;;
47009;SDS011;59230;54.164;-3.124;2024-01-07T12:46:04;7.90;;;2.15;;
47009;SDS011;59230;54.164;-3.124;2024-01-07T12:48:32;6.85;;;2.47;;
47009;SDS011;59230;54.164;-3.124;2024-01-07T12:51:01;6.60;;;2.15;;
47009;SDS011;59230;54.164;-3.124;2024-01-07T12:53:27;10.70;;;2.03;;
47009;SDS011;59230;54.164;-3.124;2024-01-07T12:55:54;11.70;;;3.53;;
47009;SDS011;59230;54.164;-3.124;2024-01-07T12:58:23;7.03;;;1.95;;
47009;SDS011;59230;54.164;-3.124;2024-01-07T13:00:51;8.73;;;2.63;;
47009;SDS011;59230;54.164;-3.124;2024-01-07T13:03:19;14.85;;;6.45;;
47009;SDS011;59230;54.164;-3.124;2024-01-07T13:05:47;21.90;;;5.88;;
47009;SDS011;59230;54.164;-3.124;2024-01-07T13:08:18;9.77;;;3.75;;
47009;SDS011;59230;54.164;-3.124;2024-01-07T13:10:44;8.23;;;2.95;;
47009;SDS011;59230;54.164;-3.124;2024-01-07T13:13:12;6.55;;;2.05;;
47009;SDS011;59230;54.164;-3.124;2024-01-07T13:15:38;6.78;;;1.83;;
47009;SDS011;59230;54.164;-3.124;2024-01-07T13:18:06;6.20;;;1.67;;
47009;SDS011;59230;54.164;-3.124;2024-01-07T13:20:34;8.60;;;2.58;;
47009;SDS011;59230;54.164;-3.124;2024-01-07T13:23:07;7.60;;;2.47;;
47009;SDS011;59230;54.164;-3.124;2024-01-07T13:25:32;7.25;;;1.92;;
47009;SDS011;59230;54.164;-3.124;2024-01-07T13:28:01;6.35;;;1.35;;
47009;SDS011;59230;54.164;-3.124;2024-01-07T13:30:28;4.15;;;1.50;;
47009;SDS011;59230;54.164;-3.124;2024-01-07T13:32:56;6.68;;;1.63;;
47009;SDS011;59230;54.164;-3.124;2024-01-07T13:35:22;5.47;;;1.63;;
47009;SDS011;59230;54.164;-3.124;2024-01-07T13:37:47;10.25;;;1.98;;
47009;SDS011;59230;54.164;-3.124;2024-01-07T13:40:13;7.10;;;2.22;;
47009;SDS011;59230;54.164;-3.124;2024-01-07T13:42:40;204.15;;;66.82;;
47009;SDS011;59230;54.164;-3.124;2024-01-07T13:45:06;61.45;;;20.58;;
47009;SDS011;59230;54.164;-3.124;2024-01-07T13:47:33;53.47;;;16.25;;
47009;SDS011;59230;54.164;-3.124;2024-01-07T13:50:04;122.82;;;36.47;;
47009;SDS011;59230;54.164;-3.124;2024-01-07T13:52:31;48.22;;;16.58;;
47009;SDS011;59230;54.164;-3.124;2024-01-07T13:54:58;196.15;;;57.42;;
47009;SDS011;59230;54.164;-3.124;2024-01-07T13:57:23;199.85;;;62.50;;
47009;SDS011;59230;54.164;-3.124;2024-01-07T13:59:48;149.18;;;50.40;;
47009;SDS011;59230;54.164;-3.124;2024-01-07T14:02:14;106.07;;;34.95;;
47009;SDS011;59230;54.164;-3.124;2024-01-07T14:04:46;45.08;;;14.75;;
47009;SDS011;59230;54.164;-3.124;2024-01-07T14:07:20;13.20;;;5.35;;
47009;SDS011;59230;54.164;-3.124;2024-01-07T14:09:47;9.50;;;4.25;;
47009;SDS011;59230;54.164;-3.124;2024-01-07T14:12:15;22.50;;;9.85;;
47009;SDS011;59230;54.164;-3.124;2024-01-07T14:14:41;51.85;;;20.05;;
47009;SDS011;59230;54.164;-3.124;2024-01-07T14:17:08;43.83;;;18.30;;
47009;SDS011;59230;54.164;-3.124;2024-01-07T14:19:34;43.45;;;17.73;;
47009;SDS011;59230;54.164;-3.124;2024-01-07T14:22:03;26.42;;;9.73;;
47009;SDS011;59230;54.164;-3.124;2024-01-07T14:24:30;16.58;;;5.10;;
47009;SDS011;59230;54.164;-3.124;2024-01-07T14:26:57;12.82;;;4.00;;
47009;SDS011;59230;54.164;-3.124;2024-01-07T14:29:23;12.80;;;5.38;;
47009;SDS011;59230;54.164;-3.124;2024-01-07T14:31:51;24.83;;;9.27;;
47009;SDS011;59230;54.164;-3.124;2024-01-07T14:34:18;42.45;;;16.42;;
47009;SDS011;59230;54.164;-3.124;2024-01-07T14:36:45;28.45;;;13.25;;
47009;SDS011;59230;54.164;-3.124;2024-01-07T14:39:12;81.75;;;34.70;;